Time;durP1;ratioP1;P1;durP2;ratioP2;P2;SDS_P1;SDS_P2;PMS_P1;PMS_P2;Temp;Humidity;BMP_temperature;BMP_pressure;BME280_temperature;BME280_humidity;BME280_pressure;Samples;Min_cycle;Max_cycle;Signal;HPM_P1;HPM_P2
2021/03/25 00:02:19;;;;;;;63.30;31.55;;;;;;;;;;4995709;28;20039;-63
2021/03/25 00:05:06;;;;;;;56.95;32.20;;;;;;;;;;4995502;28;20100;-63
2021/03/25 00:07:51;;;;;;;62.67;34.08;;;;;;;;;;4995603;28;20050;-63
2021/03/25 00:10:37;;;;;;;59.50;34.78;;;;;;;;;;4995566;28;20073;-63
2021/03/25 00:13:23;;;;;;;63.45;36.60;;;;;;;;;;4995277;28;20157;-63
2021/03/25 00:16:09;;;;;;;71.60;32.60;;;;;;;;;;4988477;28;20122;-63
2021/03/25 00:18:54;;;;;;;50.15;27.73;;;;;;;;;;4995469;28;20046;-63
2021/03/25 00:21:39;;;;;;;68.63;34.80;;;;;;;;;;4995434;28;20053;-63
2021/03/25 00:24:25;;;;;;;76.32;37.00;;;;;;;;;;4993456;28;20046;-63
2021/03/25 00:27:10;;;;;;;63.47;35.00;;;;;;;;;;4994399;28;20042;-63
2021/03/25 00:29:55;;;;;;;73.00;39.58;;;;;;;;;;4995026;28;20042;-63
2021/03/25 00:32:41;;;;;;;66.93;35.05;;;;;;;;;;4995256;28;20058;-63
2021/03/25 00:35:26;;;;;;;69.60;35.13;;;;;;;;;;4994767;28;20061;-63
2021/03/25 00:38:12;;;;;;;78.65;38.95;;;;;;;;;;4995034;28;20527;-63
2021/03/25 00:40:57;;;;;;;76.68;39.17;;;;;;;;;;4994993;28;20488;-63
2021/03/25 00:43:42;;;;;;;59.45;32.78;;;;;;;;;;4993825;28;20488;-63
2021/03/25 00:46:28;;;;;;;80.75;40.67;;;;;;;;;;4994619;28;20050;-63
2021/03/25 00:49:13;;;;;;;57.10;30.33;;;;;;;;;;4994703;28;20396;-63
2021/03/25 00:51:59;;;;;;;53.10;29.38;;;;;;;;;;4995061;28;20141;-63
2021/03/25 00:54:44;;;;;;;62.40;35.60;;;;;;;;;;4994713;28;20594;-63
2021/03/25 00:57:30;;;;;;;73.53;37.63;;;;;;;;;;4994694;28;20058;-63
2021/03/25 01:00:17;;;;;;;72.22;38.17;;;;;;;;;;4994559;28;20057;-63
2021/03/25 01:03:03;;;;;;;88.25;43.80;;;;;;;;;;4993721;28;20054;-63
2021/03/25 01:05:48;;;;;;;94.05;44.05;;;;;;;;;;4993909;28;20397;-63
2021/03/25 01:08:34;;;;;;;87.15;41.25;;;;;;;;;;4994378;28;20074;-63
2021/03/25 01:11:20;;;;;;;81.28;42.25;;;;;;;;;;4993530;28;20046;-63
2021/03/25 01:14:08;;;;;;;79.50;39.97;;;;;;;;;;4994443;28;20053;-63
2021/03/25 01:16:54;;;;;;;60.47;33.63;;;;;;;;;;4993202;28;20058;-63
2021/03/25 01:19:39;;;;;;;72.57;36.22;;;;;;;;;;4994409;28;20052;-63
2021/03/25 01:22:24;;;;;;;82.00;37.25;;;;;;;;;;4994242;28;20136;-63
2021/03/25 01:25:10;;;;;;;89.22;41.63;;;;;;;;;;4993835;28;20121;-63
2021/03/25 01:27:56;;;;;;;75.82;38.22;;;;;;;;;;4993911;28;20101;-63
2021/03/25 01:30:42;;;;;;;76.47;36.72;;;;;;;;;;4994213;28;20062;-63
2021/03/25 01:33:29;;;;;;;76.53;36.38;;;;;;;;;;4993957;28;20121;-63
2021/03/25 01:36:15;;;;;;;68.95;35.70;;;;;;;;;;4993946;28;20057;-63
2021/03/25 01:39:00;;;;;;;71.80;35.80;;;;;;;;;;4993481;28;20054;-63
2021/03/25 01:41:48;;;;;;;61.58;35.05;;;;;;;;;;4992733;28;20057;-63
2021/03/25 01:44:35;;;;;;;64.80;34.55;;;;;;;;;;4993718;28;20054;-63
2021/03/25 01:47:20;;;;;;;74.07;39.42;;;;;;;;;;4993786;28;20513;-63
2021/03/25 01:50:06;;;;;;;95.53;41.95;;;;;;;;;;4978800;28;20050;-62
2021/03/25 01:52:54;;;;;;;104.15;43.30;;;;;;;;;;4993803;28;20054;-63
2021/03/25 01:55:43;;;;;;;95.05;44.08;;;;;;;;;;5006153;28;20050;-63
2021/03/25 01:58:46;;;;;;;88.00;42.50;;;;;;;;;;5006123;28;20046;-63
2021/03/25 02:01:43;;;;;;;87.47;43.13;;;;;;;;;;5004846;28;20053;-63
2021/03/25 02:04:38;;;;;;;91.25;43.75;;;;;;;;;;4993317;28;20077;-63
2021/03/25 02:07:33;;;;;;;97.15;44.58;;;;;;;;;;4992649;28;20057;-63
2021/03/25 02:10:29;;;;;;;76.97;39.92;;;;;;;;;;4993321;28;20046;-63
2021/03/25 02:13:31;;;;;;;84.80;42.75;;;;;;;;;;4985359;28;20497;-63
2021/03/25 02:16:26;;;;;;;101.13;46.55;;;;;;;;;;4959646;28;20046;-64
2021/03/25 02:19:31;;;;;;;95.93;46.13;;;;;;;;;;4974623;28;20107;-63
2021/03/25 02:22:29;;;;;;;87.63;44.08;;;;;;;;;;4991729;28;20497;-63
2021/03/25 02:25:20;;;;;;;91.32;43.83;;;;;;;;;;4991868;28;20073;-64
2021/03/25 02:28:32;;;;;;;87.75;43.70;;;;;;;;;;4992323;28;20050;-64
2021/03/25 02:31:19;;;;;;;88.43;43.03;;;;;;;;;;4978349;28;20158;-64
2021/03/25 02:34:12;;;;;;;85.28;44.65;;;;;;;;;;4978990;28;20046;-62
2021/03/25 02:37:08;;;;;;;84.07;41.47;;;;;;;;;;4991948;28;20042;-64
2021/03/25 02:40:13;;;;;;;83.13;39.63;;;;;;;;;;4991849;28;20047;-64
2021/03/25 02:43:10;;;;;;;71.88;36.80;;;;;;;;;;4991686;28;20068;-64
2021/03/25 02:45:58;;;;;;;80.65;40.13;;;;;;;;;;5005453;28;20047;-64
2021/03/25 02:48:46;;;;;;;81.00;40.45;;;;;;;;;;4991602;28;20045;-63
2021/03/25 02:51:32;;;;;;;69.35;36.15;;;;;;;;;;5005480;28;20054;-62
2021/03/25 02:54:18;;;;;;;78.85;39.13;;;;;;;;;;4986200;28;20047;-64
2021/03/25 02:57:12;;;;;;;83.47;37.58;;;;;;;;;;4972257;28;20050;-64
2021/03/25 02:59:58;;;;;;;73.97;37.00;;;;;;;;;;4988014;28;20046;-63
2021/03/25 03:02:49;;;;;;;72.85;37.97;;;;;;;;;;4991324;28;20039;-64
2021/03/25 03:05:53;;;;;;;75.00;39.13;;;;;;;;;;4991915;28;20050;-62
2021/03/25 03:08:42;;;;;;;67.65;38.58;;;;;;;;;;4995628;28;20500;-64
2021/03/25 03:11:28;;;;;;;68.45;37.70;;;;;;;;;;4995534;28;20124;-64
2021/03/25 03:14:15;;;;;;;80.07;41.47;;;;;;;;;;4981828;28;20054;-63
2021/03/25 03:17:11;;;;;;;69.30;38.92;;;;;;;;;;4995468;28;20504;-63
2021/03/25 03:20:06;;;;;;;82.95;40.15;;;;;;;;;;4995410;28;20042;-64
2021/03/25 03:23:05;;;;;;;65.82;34.53;;;;;;;;;;4995243;28;20054;-64
2021/03/25 03:25:51;;;;;;;81.10;39.03;;;;;;;;;;4995014;28;20497;-63
2021/03/25 03:28:40;;;;;;;88.10;41.13;;;;;;;;;;4995245;28;20074;-64
2021/03/25 03:32:01;;;;;;;80.63;40.53;;;;;;;;;;4983295;28;20046;-63
2021/03/25 03:35:00;;;;;;;82.05;39.55;;;;;;;;;;4994646;28;20505;-63
2021/03/25 03:37:50;;;;;;;88.68;42.85;;;;;;;;;;4995210;28;20141;-63
2021/03/25 03:40:41;;;;;;;96.10;41.42;;;;;;;;;;4995033;28;20050;-63
2021/03/25 03:43:27;;;;;;;79.88;37.03;;;;;;;;;;4981444;28;20038;-64
2021/03/25 03:46:14;;;;;;;88.60;39.28;;;;;;;;;;4961873;28;20062;-63
2021/03/25 03:49:16;;;;;;;69.50;36.72;;;;;;;;;;4975298;28;20074;-62
2021/03/25 03:52:13;;;;;;;92.50;42.90;;;;;;;;;;4961572;28;20412;-64
2021/03/25 03:55:02;;;;;;;84.75;42.42;;;;;;;;;;4970138;28;20066;-64
2021/03/25 03:57:56;;;;;;;92.60;44.92;;;;;;;;;;4981435;28;20054;-64
2021/03/25 04:00:44;;;;;;;85.03;44.45;;;;;;;;;;4975382;28;20050;-64
2021/03/25 04:03:41;;;;;;;89.05;43.25;;;;;;;;;;4975099;28;20047;-63
2021/03/25 04:06:39;;;;;;;92.80;44.17;;;;;;;;;;4993959;28;20050;-63
2021/03/25 04:09:42;;;;;;;84.88;41.45;;;;;;;;;;4994427;28;20038;-64
2021/03/25 04:12:39;;;;;;;89.18;43.00;;;;;;;;;;4982408;28;20140;-64
2021/03/25 04:15:25;;;;;;;94.72;45.45;;;;;;;;;;4994080;28;20088;-64
2021/03/25 04:18:40;;;;;;;88.72;43.72;;;;;;;;;;5006104;28;20385;-64
2021/03/25 04:21:55;;;;;;;82.60;43.17;;;;;;;;;;4985437;28;20563;-63
2021/03/25 04:24:53;;;;;;;78.18;40.15;;;;;;;;;;5007955;28;20073;-64
2021/03/25 04:27:42;;;;;;;73.97;41.03;;;;;;;;;;4975830;28;20034;-64
2021/03/25 04:30:28;;;;;;;79.43;40.15;;;;;;;;;;4975655;28;20154;-64
2021/03/25 04:33:14;;;;;;;70.80;37.30;;;;;;;;;;4975879;28;20051;-64
2021/03/25 04:35:59;;;;;;;76.82;38.22;;;;;;;;;;4979652;28;20038;-63
2021/03/25 04:38:45;;;;;;;78.25;37.72;;;;;;;;;;4994899;28;20072;-64
2021/03/25 04:41:30;;;;;;;70.55;36.10;;;;;;;;;;4994898;28;20497;-64
2021/03/25 04:44:21;;;;;;;68.78;36.17;;;;;;;;;;4993888;28;20440;-63
2021/03/25 04:47:08;;;;;;;68.20;36.35;;;;;;;;;;4980264;28;20050;-64
2021/03/25 04:50:03;;;;;;;80.32;36.97;;;;;;;;;;4991216;28;20072;-63
2021/03/25 04:52:49;;;;;;;75.00;36.95;;;;;;;;;;4975376;28;20055;-63
2021/03/25 04:55:35;;;;;;;86.43;41.15;;;;;;;;;;4978267;28;20042;-63
2021/03/25 04:58:22;;;;;;;73.25;36.58;;;;;;;;;;4975348;28;20121;-63
2021/03/25 05:01:08;;;;;;;78.13;38.70;;;;;;;;;;4974334;28;20140;-63
2021/03/25 05:03:57;;;;;;;83.00;40.35;;;;;;;;;;4974429;28;20038;-63
2021/03/25 05:06:50;;;;;;;75.82;35.72;;;;;;;;;;4984809;28;20043;-63
2021/03/25 05:09:35;;;;;;;77.03;37.55;;;;;;;;;;4993451;28;20050;-63
2021/03/25 05:12:20;;;;;;;86.20;42.10;;;;;;;;;;4993319;28;20049;-63
2021/03/25 05:15:08;;;;;;;83.47;40.70;;;;;;;;;;4993994;28;20057;-63
2021/03/25 05:17:59;;;;;;;89.97;41.75;;;;;;;;;;4988457;28;20055;-63
2021/03/25 05:20:48;;;;;;;100.75;45.25;;;;;;;;;;4974664;28;20050;-63
2021/03/25 05:23:35;;;;;;;105.22;46.45;;;;;;;;;;4980712;28;20050;-63
2021/03/25 05:26:21;;;;;;;87.65;40.58;;;;;;;;;;4992814;28;20050;-63
2021/03/25 05:29:07;;;;;;;110.22;46.03;;;;;;;;;;4992224;28;20052;-63
2021/03/25 05:31:52;;;;;;;98.25;43.08;;;;;;;;;;4993046;28;20129;-63
2021/03/25 05:34:38;;;;;;;109.43;47.60;;;;;;;;;;4982666;28;20078;-63
2021/03/25 05:37:23;;;;;;;91.50;41.45;;;;;;;;;;4980206;28;20038;-63
2021/03/25 05:40:20;;;;;;;139.82;53.55;;;;;;;;;;4973566;28;20070;-63
2021/03/25 05:43:06;;;;;;;128.02;50.08;;;;;;;;;;4973372;28;20125;-64
2021/03/25 05:46:00;;;;;;;106.05;46.95;;;;;;;;;;4974265;28;20046;-62
2021/03/25 05:48:52;;;;;;;134.20;54.67;;;;;;;;;;4988880;28;20050;-63
2021/03/25 05:51:42;;;;;;;110.38;44.22;;;;;;;;;;4973174;28;20039;-64
2021/03/25 05:54:27;;;;;;;105.68;45.72;;;;;;;;;;4986869;28;20129;-64
2021/03/25 05:57:15;;;;;;;128.18;53.85;;;;;;;;;;4993652;28;20548;-64
2021/03/25 06:00:02;;;;;;;95.53;46.90;;;;;;;;;;4976541;28;20699;-63
2021/03/25 06:03:05;;;;;;;110.00;49.15;;;;;;;;;;5004728;28;20046;-63
2021/03/25 06:05:50;;;;;;;;;;;;;;;;;;5000707;28;20501;-64
2021/03/25 06:08:35;;;;;;;120.07;51.55;;;;;;;;;;4991760;28;19926;-64
2021/03/25 06:11:39;;;;;;;108.78;47.78;;;;;;;;;;4992695;28;20050;-64
2021/03/25 06:14:35;;;;;;;112.95;45.83;;;;;;;;;;4991737;28;20140;-64
2021/03/25 06:17:24;;;;;;;103.22;47.22;;;;;;;;;;4991839;28;20057;-64
2021/03/25 06:20:30;;;;;;;99.60;46.50;;;;;;;;;;4992213;28;20129;-64
2021/03/25 06:23:18;;;;;;;104.88;47.85;;;;;;;;;;4972766;28;20459;-64
2021/03/25 06:26:22;;;;;;;94.22;46.45;;;;;;;;;;4973514;28;20055;-63
2021/03/25 06:29:13;;;;;;;114.38;51.20;;;;;;;;;;4973576;28;20058;-63
2021/03/25 06:31:58;;;;;;;116.70;52.70;;;;;;;;;;4979832;28;20124;-63
2021/03/25 06:34:46;;;;;;;109.75;53.03;;;;;;;;;;4992846;28;20057;-63
2021/03/25 06:37:36;;;;;;;108.00;53.15;;;;;;;;;;4992864;28;20051;-63
2021/03/25 06:40:22;;;;;;;119.07;57.30;;;;;;;;;;4992371;28;20137;-63
2021/03/25 06:43:11;;;;;;;128.35;57.95;;;;;;;;;;5004750;28;20496;-63
2021/03/25 06:45:57;;;;;;;118.10;58.35;;;;;;;;;;4992460;28;20408;-63
2021/03/25 06:48:47;;;;;;;115.32;56.80;;;;;;;;;;4991656;28;20049;-63
2021/03/25 06:51:33;;;;;;;116.15;56.80;;;;;;;;;;4992719;28;20038;-63
2021/03/25 06:54:25;;;;;;;108.32;56.13;;;;;;;;;;4973095;28;20074;-63
2021/03/25 06:57:12;;;;;;;122.20;60.65;;;;;;;;;;4973643;28;20051;-63
2021/03/25 06:59:57;;;;;;;100.82;52.78;;;;;;;;;;4973464;28;20057;-63
2021/03/25 07:02:43;;;;;;;105.25;55.10;;;;;;;;;;4976517;28;20053;-63
2021/03/25 07:05:30;;;;;;;115.30;60.40;;;;;;;;;;4972077;28;20047;-63
2021/03/25 07:08:15;;;;;;;102.30;53.00;;;;;;;;;;4972162;28;20054;-63
2021/03/25 07:11:04;;;;;;;104.13;54.95;;;;;;;;;;4979984;28;20424;-63
2021/03/25 07:13:56;;;;;;;94.93;51.13;;;;;;;;;;4991705;28;20046;-63
2021/03/25 07:16:43;;;;;;;90.35;50.15;;;;;;;;;;4991637;28;20056;-63
2021/03/25 07:19:28;;;;;;;90.82;51.97;;;;;;;;;;4992576;28;20058;-63
2021/03/25 07:22:23;;;;;;;95.35;50.22;;;;;;;;;;4991303;28;20058;-63
2021/03/25 07:25:17;;;;;;;86.88;49.88;;;;;;;;;;4992265;28;20051;-63
2021/03/25 07:28:03;;;;;;;89.50;49.97;;;;;;;;;;4992581;28;20047;-63
2021/03/25 07:30:56;;;;;;;84.72;48.90;;;;;;;;;;4992409;28;20046;-63
2021/03/25 07:33:41;;;;;;;;;;;;;;;;;;4977121;28;20412;-63
2021/03/25 07:36:26;;;;;;;83.85;49.30;;;;;;;;;;4991972;28;20008;-63
2021/03/25 07:39:11;;;;;;;79.35;48.97;;;;;;;;;;4992246;28;20138;-63
2021/03/25 07:41:58;;;;;;;83.20;47.25;;;;;;;;;;4972819;28;20050;-63
2021/03/25 07:44:43;;;;;;;82.05;48.15;;;;;;;;;;4972577;28;20405;-63
2021/03/25 07:47:33;;;;;;;88.38;50.92;;;;;;;;;;4972959;28;20134;-63
2021/03/25 07:50:28;;;;;;;72.13;45.58;;;;;;;;;;4977403;28;20405;-63
2021/03/25 07:53:18;;;;;;;80.05;46.22;;;;;;;;;;4994413;28;20046;-63
2021/03/25 07:56:12;;;;;;;82.93;45.72;;;;;;;;;;4995619;28;20054;-63
2021/03/25 07:58:57;;;;;;;80.50;47.70;;;;;;;;;;4995633;28;20177;-63
2021/03/25 08:01:47;;;;;;;84.10;49.30;;;;;;;;;;4995587;28;20301;-63
2021/03/25 08:04:32;;;;;;;79.68;48.67;;;;;;;;;;4995284;28;20493;-63
2021/03/25 08:07:17;;;;;;;84.38;47.60;;;;;;;;;;4995770;28;20038;-63
2021/03/25 08:10:02;;;;;;;70.20;44.65;;;;;;;;;;4994834;28;20460;-62
2021/03/25 08:12:48;;;;;;;74.72;48.17;;;;;;;;;;4976392;28;20055;-63
2021/03/25 08:15:36;;;;;;;84.75;48.90;;;;;;;;;;4975930;28;20058;-63
2021/03/25 08:18:25;;;;;;;80.95;49.63;;;;;;;;;;4976297;28;20452;-63
2021/03/25 08:21:13;;;;;;;77.72;48.70;;;;;;;;;;4980784;28;20105;-63
2021/03/25 08:24:04;;;;;;;77.82;48.88;;;;;;;;;;4995454;28;20046;-63
2021/03/25 08:26:53;;;;;;;74.75;46.95;;;;;;;;;;4994784;28;20129;-63
2021/03/25 08:29:39;;;;;;;73.03;47.08;;;;;;;;;;4994797;28;20050;-63
2021/03/25 08:32:42;;;;;;;74.10;46.17;;;;;;;;;;4995681;28;20058;-63
2021/03/25 08:35:32;;;;;;;77.20;45.92;;;;;;;;;;4995615;28;20046;-63
2021/03/25 08:38:27;;;;;;;75.07;46.90;;;;;;;;;;4994461;28;20047;-62
2021/03/25 08:41:18;;;;;;;70.70;45.72;;;;;;;;;;4995731;28;20552;-63
2021/03/25 08:44:08;;;;;;;73.60;45.10;;;;;;;;;;4976192;28;20053;-63
2021/03/25 08:46:56;;;;;;;70.20;43.78;;;;;;;;;;4993004;28;20046;-63
2021/03/25 08:49:52;;;;;;;75.95;45.60;;;;;;;;;;5008543;28;20121;-63
2021/03/25 08:52:38;;;;;;;76.82;46.58;;;;;;;;;;4990888;28;20508;-63
2021/03/25 08:55:32;;;;;;;72.15;45.90;;;;;;;;;;4994237;28;20485;-63
2021/03/25 08:58:18;;;;;;;68.03;42.90;;;;;;;;;;4974238;28;20054;-63
2021/03/25 09:01:07;;;;;;;65.90;43.63;;;;;;;;;;4984129;28;20046;-63
2021/03/25 09:03:55;;;;;;;66.63;43.60;;;;;;;;;;4993803;28;20270;-63
2021/03/25 09:06:42;;;;;;;67.97;43.83;;;;;;;;;;5007283;28;20047;-63
2021/03/25 09:09:27;;;;;;;65.82;40.53;;;;;;;;;;5005141;28;20485;-63
2021/03/25 09:12:16;;;;;;;60.50;38.65;;;;;;;;;;4993146;28;20396;-63
2021/03/25 09:15:02;;;;;;;65.75;41.42;;;;;;;;;;4974732;28;20185;-63
2021/03/25 09:17:50;;;;;;;55.10;37.80;;;;;;;;;;4978744;28;20042;-64
2021/03/25 09:20:36;;;;;;;58.83;39.45;;;;;;;;;;4993037;28;20071;-64
2021/03/25 09:23:31;;;;;;;53.30;35.00;;;;;;;;;;4993125;28;20038;-64
2021/03/25 09:26:16;;;;;;;55.90;36.80;;;;;;;;;;4984839;28;20043;-65
2021/03/25 09:29:03;;;;;;;56.40;35.33;;;;;;;;;;4978474;28;20049;-65
2021/03/25 09:31:55;;;;;;;56.75;35.05;;;;;;;;;;4993813;28;20050;-65
2021/03/25 09:34:48;;;;;;;52.92;37.00;;;;;;;;;;4993561;28;20165;-65
2021/03/25 09:37:33;;;;;;;;;;;;;;;;;;4994520;28;20468;-65
2021/03/25 09:40:30;;;;;;;49.55;30.40;;;;;;;;;;4992231;28;19926;-65
2021/03/25 09:43:30;;;;;;;47.25;30.30;;;;;;;;;;4993656;28;20560;-65
2021/03/25 09:46:21;;;;;;;51.65;32.55;;;;;;;;;;4991865;28;20046;-65
2021/03/25 09:49:24;;;;;;;49.03;31.73;;;;;;;;;;4993436;28;20500;-65
2021/03/25 09:52:13;;;;;;;55.88;34.78;;;;;;;;;;4992277;28;20050;-65
2021/03/25 09:54:58;;;;;;;49.13;31.92;;;;;;;;;;4993425;28;20050;-65
2021/03/25 09:57:44;;;;;;;48.22;31.60;;;;;;;;;;4993564;28;20054;-65
2021/03/25 10:00:31;;;;;;;42.05;27.80;;;;;;;;;;4989930;28;20144;-65
2021/03/25 10:03:18;;;;;;;44.72;30.70;;;;;;;;;;4974084;28;20046;-65
2021/03/25 10:06:04;;;;;;;44.70;31.30;;;;;;;;;;4973648;28;20385;-65
2021/03/25 10:08:50;;;;;;;47.88;32.10;;;;;;;;;;4973866;28;20125;-65
2021/03/25 10:11:39;;;;;;;50.22;31.77;;;;;;;;;;4982256;28;20042;-65
2021/03/25 10:14:48;;;;;;;49.80;34.03;;;;;;;;;;5005797;28;20129;-65
2021/03/25 10:17:46;;;;;;;49.42;33.70;;;;;;;;;;4993300;28;20058;-65
2021/03/25 10:20:50;;;;;;;53.13;35.83;;;;;;;;;;4992956;28;20050;-65
2021/03/25 10:23:39;;;;;;;47.53;32.67;;;;;;;;;;4991312;28;20054;-65
2021/03/25 10:26:37;;;;;;;44.17;30.42;;;;;;;;;;4993044;28;20062;-65
2021/03/25 10:29:22;;;;;;;43.78;27.80;;;;;;;;;;5005729;28;20412;-65
2021/03/25 10:32:13;;;;;;;35.38;25.10;;;;;;;;;;5004124;28;20046;-65
2021/03/25 10:35:01;;;;;;;44.55;27.70;;;;;;;;;;4989224;28;20137;-65
2021/03/25 10:37:52;;;;;;;41.00;28.25;;;;;;;;;;4978577;28;20055;-65
2021/03/25 10:40:39;;;;;;;42.17;27.02;;;;;;;;;;4984295;28;20055;-65
2021/03/25 10:43:31;;;;;;;37.25;26.73;;;;;;;;;;4986119;28;20050;-65
2021/03/25 10:46:27;;;;;;;39.90;25.30;;;;;;;;;;4983589;28;20046;-64
2021/03/25 10:49:20;;;;;;;34.13;24.38;;;;;;;;;;4978693;28;20508;-65
2021/03/25 10:52:05;;;;;;;42.03;26.38;;;;;;;;;;4992459;28;20050;-65
2021/03/25 10:54:51;;;;;;;36.38;24.02;;;;;;;;;;4983326;28;20496;-65
2021/03/25 10:57:36;;;;;;;35.63;22.63;;;;;;;;;;5011576;23;20046;-64
2021/03/25 11:00:23;;;;;;;31.60;20.17;;;;;;;;;;4966906;28;20051;-63
2021/03/25 11:03:27;;;;;;;31.02;20.83;;;;;;;;;;4974556;28;20054;-64
2021/03/25 11:06:19;;;;;;;30.73;22.27;;;;;;;;;;4969560;28;20055;-64
2021/03/25 11:09:08;;;;;;;32.55;23.10;;;;;;;;;;4971338;28;20389;-64
2021/03/25 11:11:54;;;;;;;35.00;23.73;;;;;;;;;;4966586;28;20440;-63
2021/03/25 11:14:48;;;;;;;34.97;26.02;;;;;;;;;;4956245;28;20051;-63
2021/03/25 11:17:34;;;;;;;33.60;23.67;;;;;;;;;;4972368;28;20087;-63
2021/03/25 11:20:21;;;;;;;32.08;22.05;;;;;;;;;;4962214;28;20126;-63
2021/03/25 11:23:06;;;;;;;37.33;24.88;;;;;;;;;;4968815;28;20050;-63
2021/03/25 11:25:55;;;;;;;38.03;24.80;;;;;;;;;;4959095;28;20105;-63
2021/03/25 11:28:40;;;;;;;36.00;26.67;;;;;;;;;;4973096;28;20051;-63
2021/03/25 11:31:32;;;;;;;41.05;26.30;;;;;;;;;;4976610;28;20062;-63
2021/03/25 11:34:25;;;;;;;42.00;29.38;;;;;;;;;;4967386;28;20050;-63
2021/03/25 11:37:25;;;;;;;42.90;29.40;;;;;;;;;;4972965;28;20423;-63
2021/03/25 11:40:15;;;;;;;44.60;28.77;;;;;;;;;;4958716;28;20513;-63
2021/03/25 11:43:08;;;;;;;42.20;26.27;;;;;;;;;;4972110;28;20046;-63
2021/03/25 11:45:54;;;;;;;37.67;26.52;;;;;;;;;;4967351;28;20421;-63
2021/03/25 11:48:39;;;;;;;38.47;27.10;;;;;;;;;;4969088;28;20089;-63
2021/03/25 11:51:25;;;;;;;44.08;27.23;;;;;;;;;;4972873;28;20046;-63
2021/03/25 11:54:26;;;;;;;41.60;28.73;;;;;;;;;;4968323;28;20086;-63
2021/03/25 11:57:17;;;;;;;43.38;30.42;;;;;;;;;;4967845;28;20428;-63
2021/03/25 12:00:07;;;;;;;41.25;29.40;;;;;;;;;;4978450;28;20533;-63
2021/03/25 12:02:56;;;;;;;43.40;30.65;;;;;;;;;;4971507;28;20513;-63
2021/03/25 12:05:43;;;;;;;38.47;28.65;;;;;;;;;;4960989;28;20530;-63
2021/03/25 12:08:29;;;;;;;46.63;29.75;;;;;;;;;;4968487;28;20485;-64
2021/03/25 12:11:14;;;;;;;45.63;30.23;;;;;;;;;;4973231;28;20054;-63
2021/03/25 12:14:00;;;;;;;44.65;32.22;;;;;;;;;;4968693;28;20043;-63
2021/03/25 12:16:45;;;;;;;39.70;28.27;;;;;;;;;;4969166;28;20050;-64
2021/03/25 12:19:33;;;;;;;40.00;29.75;;;;;;;;;;4957596;28;20087;-63
2021/03/25 12:22:22;;;;;;;40.17;30.35;;;;;;;;;;4965290;28;20047;-63
2021/03/25 12:25:08;;;;;;;44.55;31.15;;;;;;;;;;4971945;28;20051;-64
2021/03/25 12:27:53;;;;;;;45.83;30.80;;;;;;;;;;4962163;28;20511;-63
2021/03/25 12:30:39;;;;;;;37.80;28.98;;;;;;;;;;4974694;28;20077;-63
2021/03/25 12:33:26;;;;;;;41.65;29.00;;;;;;;;;;4959603;28;20074;-64
2021/03/25 12:36:12;;;;;;;40.70;27.75;;;;;;;;;;4967176;28;20047;-64
2021/03/25 12:38:57;;;;;;;40.85;30.27;;;;;;;;;;4969571;28;20043;-64
2021/03/25 12:41:43;;;;;;;42.85;30.05;;;;;;;;;;4975480;28;20047;-64
2021/03/25 12:44:29;;;;;;;39.95;28.65;;;;;;;;;;4964248;28;20086;-63
2021/03/25 12:47:14;;;;;;;43.83;29.73;;;;;;;;;;4971753;28;20097;-64
2021/03/25 12:49:59;;;;;;;38.33;28.42;;;;;;;;;;4962906;28;20046;-64
2021/03/25 12:52:45;;;;;;;42.50;28.90;;;;;;;;;;4962107;28;20047;-64
2021/03/25 12:55:30;;;;;;;39.72;29.25;;;;;;;;;;4971546;28;20050;-64
2021/03/25 12:58:17;;;;;;;46.38;32.60;;;;;;;;;;4965269;28;20054;-64
2021/03/25 13:01:12;;;;;;;45.65;30.25;;;;;;;;;;4958939;28;20111;-65
2021/03/25 13:03:57;;;;;;;41.65;29.15;;;;;;;;;;4962355;28;20074;-64
2021/03/25 13:06:43;;;;;;;43.00;28.90;;;;;;;;;;4963152;28;20051;-64
2021/03/25 13:09:28;;;;;;;34.35;25.73;;;;;;;;;;4963745;28;20201;-64
2021/03/25 13:12:16;;;;;;;34.47;24.90;;;;;;;;;;4966548;28;20053;-64
2021/03/25 13:15:01;;;;;;;33.80;24.30;;;;;;;;;;4965464;28;20047;-64
2021/03/25 13:17:46;;;;;;;33.70;22.85;;;;;;;;;;4962625;28;20054;-63
2021/03/25 13:20:33;;;;;;;25.83;20.67;;;;;;;;;;4963809;28;20066;-63
2021/03/25 13:23:18;;;;;;;21.55;17.45;;;;;;;;;;4966843;28;20047;-64
2021/03/25 13:26:06;;;;;;;23.60;17.00;;;;;;;;;;4966759;28;20043;-64
2021/03/25 13:28:51;;;;;;;20.55;15.50;;;;;;;;;;4967968;28;20043;-64
2021/03/25 13:31:37;;;;;;;21.83;16.25;;;;;;;;;;4970926;28;20071;-64
2021/03/25 13:34:22;;;;;;;25.77;17.92;;;;;;;;;;4968978;28;20051;-64
2021/03/25 13:37:08;;;;;;;33.10;21.33;;;;;;;;;;4968206;28;20050;-64
2021/03/25 13:39:53;;;;;;;28.80;22.77;;;;;;;;;;4968937;28;20066;-63
2021/03/25 13:42:38;;;;;;;31.08;22.95;;;;;;;;;;4966903;28;20493;-64
2021/03/25 13:45:25;;;;;;;33.38;23.65;;;;;;;;;;4958059;28;20497;-64
2021/03/25 13:48:10;;;;;;;34.03;25.20;;;;;;;;;;4955396;28;20405;-64
2021/03/25 13:50:56;;;;;;;36.70;28.98;;;;;;;;;;4965399;28;20118;-65
2021/03/25 13:53:42;;;;;;;36.22;28.77;;;;;;;;;;4966378;28;20394;-63
2021/03/25 13:56:27;;;;;;;40.08;31.60;;;;;;;;;;4962891;28;20043;-63
2021/03/25 13:59:12;;;;;;;48.88;34.85;;;;;;;;;;4967403;28;20525;-63
2021/03/25 14:01:57;;;;;;;48.72;34.63;;;;;;;;;;4968919;28;20500;-62
2021/03/25 14:04:46;;;;;;;47.97;34.80;;;;;;;;;;4964794;28;20408;-63
2021/03/25 14:07:31;;;;;;;47.47;34.15;;;;;;;;;;4962893;28;20039;-62
2021/03/25 14:10:17;;;;;;;41.10;32.78;;;;;;;;;;4971243;28;20062;-63
2021/03/25 14:13:03;;;;;;;43.53;33.33;;;;;;;;;;4964702;28;20062;-63
2021/03/25 14:15:48;;;;;;;48.75;34.13;;;;;;;;;;4962133;28;20051;-63
2021/03/25 14:18:33;;;;;;;47.65;34.47;;;;;;;;;;4967711;28;21089;-63
2021/03/25 14:21:19;;;;;;;54.78;36.90;;;;;;;;;;4970554;28;20061;-63
2021/03/25 14:24:04;;;;;;;50.65;37.25;;;;;;;;;;4971868;28;20093;-62
2021/03/25 14:26:50;;;;;;;51.17;38.90;;;;;;;;;;4971623;28;20042;-63
2021/03/25 14:29:36;;;;;;;55.28;37.38;;;;;;;;;;4968957;28;20049;-63
2021/03/25 14:32:21;;;;;;;47.50;36.03;;;;;;;;;;4970158;28;20050;-63
2021/03/25 14:35:07;;;;;;;47.95;34.47;;;;;;;;;;4964386;28;20137;-63
2021/03/25 14:37:53;;;;;;;45.72;32.47;;;;;;;;;;4964329;28;20046;-63
2021/03/25 14:40:39;;;;;;;45.85;33.40;;;;;;;;;;4966154;28;20051;-63
2021/03/25 14:43:25;;;;;;;45.95;31.20;;;;;;;;;;4967608;28;20412;-63
2021/03/25 14:46:10;;;;;;;37.20;28.70;;;;;;;;;;4970297;28;20500;-63
2021/03/25 14:48:56;;;;;;;36.20;27.38;;;;;;;;;;4963451;28;20039;-62
2021/03/25 14:51:41;;;;;;;34.60;23.95;;;;;;;;;;4957774;28;20055;-63
2021/03/25 14:54:27;;;;;;;31.17;24.05;;;;;;;;;;4953774;29;20058;-64
2021/03/25 14:57:12;;;;;;;31.60;23.65;;;;;;;;;;4953859;29;20047;-64
2021/03/25 14:59:57;;;;;;;29.73;21.90;;;;;;;;;;4953901;29;20059;-63
2021/03/25 15:02:43;;;;;;;28.55;21.75;;;;;;;;;;4971432;28;20055;-63
2021/03/25 15:05:28;;;;;;;30.33;23.35;;;;;;;;;;4972925;28;20224;-64
2021/03/25 15:08:14;;;;;;;28.45;20.92;;;;;;;;;;4973335;28;20051;-64
2021/03/25 15:10:59;;;;;;;28.23;20.73;;;;;;;;;;4971222;28;20485;-63
2021/03/25 15:13:45;;;;;;;26.13;19.17;;;;;;;;;;4953762;29;20075;-63
2021/03/25 15:16:30;;;;;;;27.25;20.20;;;;;;;;;;4953449;29;20524;-63
2021/03/25 15:19:15;;;;;;;23.70;18.52;;;;;;;;;;4953892;29;20155;-63
2021/03/25 15:22:01;;;;;;;23.15;18.00;;;;;;;;;;4960785;28;20133;-63
2021/03/25 15:24:46;;;;;;;28.58;21.42;;;;;;;;;;4972532;28;20129;-63
2021/03/25 15:27:32;;;;;;;30.30;19.85;;;;;;;;;;4972937;28;20501;-63
2021/03/25 15:30:19;;;;;;;25.92;19.02;;;;;;;;;;4972999;28;20047;-63
2021/03/25 15:33:05;;;;;;;26.10;17.60;;;;;;;;;;4959862;28;20126;-63
2021/03/25 15:35:51;;;;;;;27.45;19.13;;;;;;;;;;4953274;29;20494;-63
2021/03/25 15:38:37;;;;;;;23.77;17.50;;;;;;;;;;4953597;29;20051;-62
2021/03/25 15:41:22;;;;;;;21.52;16.65;;;;;;;;;;4953442;29;20564;-63
2021/03/25 15:44:09;;;;;;;24.88;16.90;;;;;;;;;;4954426;28;20043;-63
2021/03/25 15:46:55;;;;;;;23.92;16.17;;;;;;;;;;4954563;28;20047;-62
2021/03/25 15:49:40;;;;;;;24.05;16.58;;;;;;;;;;4953453;29;20110;-62
2021/03/25 15:52:26;;;;;;;23.77;15.77;;;;;;;;;;4955372;28;20039;-63
2021/03/25 15:55:12;;;;;;;24.80;17.33;;;;;;;;;;4972572;28;20427;-62
2021/03/25 15:57:57;;;;;;;23.23;16.40;;;;;;;;;;4972485;28;20496;-62
2021/03/25 16:00:42;;;;;;;25.85;14.85;;;;;;;;;;4971327;28;20047;-62
2021/03/25 16:03:28;;;;;;;22.30;14.73;;;;;;;;;;4972791;28;20078;-63
2021/03/25 16:06:13;;;;;;;23.88;14.80;;;;;;;;;;4972673;28;20046;-62
2021/03/25 16:08:58;;;;;;;20.45;14.32;;;;;;;;;;4969320;28;20056;-62
2021/03/25 16:11:44;;;;;;;20.45;11.75;;;;;;;;;;4960833;28;20118;-63
2021/03/25 16:14:29;;;;;;;15.25;10.10;;;;;;;;;;4968553;28;20090;-62
2021/03/25 16:17:14;;;;;;;15.75;7.20;;;;;;;;;;4966938;28;20077;-62
2021/03/25 16:20:00;;;;;;;25.13;10.15;;;;;;;;;;4963054;28;20054;-63
2021/03/25 16:22:45;;;;;;;15.82;9.73;;;;;;;;;;4964805;28;20061;-63